Time;durP1;ratioP1;P1;durP2;ratioP2;P2;SDS_P1;SDS_P2;PMS_P1;PMS_P2;Temp;Humidity;BMP_temperature;BMP_pressure;BME280_temperature;BME280_humidity;BME280_pressure;Samples;Min_cycle;Max_cycle;Signal;HPM_P1;HPM_P2
2023/09/17 00:00:14;;;;;;;10.07;9.07;;;20.50;99.90;;;;;;5030420;28;20213;-60
2023/09/17 00:02:43;;;;;;;12.55;9.38;;;20.50;99.90;;;;;;5028373;28;20715;-59
2023/09/17 00:05:11;;;;;;;9.93;8.40;;;20.50;99.90;;;;;;5024448;28;20257;-60
2023/09/17 00:07:39;;;;;;;12.10;8.60;;;20.50;99.90;;;;;;5029343;28;20313;-60
2023/09/17 00:10:07;;;;;;;10.35;9.05;;;20.40;99.90;;;;;;5026475;28;20221;-59
2023/09/17 00:12:35;;;;;;;9.07;8.25;;;20.40;99.90;;;;;;5015504;28;20686;-60
2023/09/17 00:15:04;;;;;;;9.43;8.52;;;20.40;99.90;;;;;;5024664;28;20241;-60
2023/09/17 00:17:33;;;;;;;11.40;8.82;;;20.40;99.90;;;;;;5030151;28;20329;-59
2023/09/17 00:20:03;;;;;;;10.25;9.25;;;20.40;99.90;;;;;;5025180;28;20206;-59
2023/09/17 00:22:31;;;;;;;11.68;8.77;;;20.30;99.90;;;;;;5021494;28;21516;-60
2023/09/17 00:24:59;;;;;;;11.20;9.25;;;20.30;99.90;;;;;;5020049;28;20663;-59
2023/09/17 00:27:26;;;;;;;10.38;9.20;;;20.30;99.90;;;;;;5027491;28;20253;-59
2023/09/17 00:29:54;;;;;;;9.63;8.65;;;20.20;99.90;;;;;;5030608;28;20296;-60
2023/09/17 00:32:22;;;;;;;10.45;9.32;;;20.20;99.90;;;;;;5020387;28;20227;-59
2023/09/17 00:34:50;;;;;;;9.27;8.45;;;20.10;99.90;;;;;;5028881;28;20229;-60
2023/09/17 00:37:19;;;;;;;10.80;8.23;;;20.10;99.90;;;;;;5026486;28;20312;-59
2023/09/17 00:39:47;;;;;;;10.90;9.25;;;20.10;99.90;;;;;;5020390;28;20202;-60
2023/09/17 00:42:15;;;;;;;9.52;7.88;;;20.10;99.90;;;;;;5029674;28;20221;-60
2023/09/17 00:44:43;;;;;;;10.32;8.45;;;20.10;99.90;;;;;;5029700;28;20241;-59
2023/09/17 00:47:12;;;;;;;8.30;7.57;;;20.00;99.90;;;;;;5029949;28;20766;-59
2023/09/17 00:49:40;;;;;;;10.43;8.10;;;20.00;99.90;;;;;;5031071;28;20212;-60
2023/09/17 00:52:10;;;;;;;8.43;7.72;;;20.00;99.90;;;;;;5021931;28;20212;-59
2023/09/17 00:54:40;;;;;;;11.05;8.27;;;20.00;99.90;;;;;;5032507;28;20217;-60
2023/09/17 00:57:08;;;;;;;9.82;8.30;;;20.00;99.90;;;;;;5028350;28;20230;-60
2023/09/17 00:59:37;;;;;;;14.07;8.45;;;20.10;99.90;;;;;;5024309;28;20242;-59
2023/09/17 01:02:05;;;;;;;9.13;8.30;;;20.00;99.90;;;;;;5033584;28;20275;-60
2023/09/17 01:04:34;;;;;;;8.73;7.93;;;20.00;99.90;;;;;;5025364;28;20198;-59
2023/09/17 01:07:02;;;;;;;9.85;8.52;;;20.00;99.90;;;;;;5027144;28;20258;-59
2023/09/17 01:09:31;;;;;;;9.93;8.70;;;19.90;99.90;;;;;;5032476;28;20255;-60
2023/09/17 01:12:01;;;;;;;9.48;8.50;;;19.90;99.90;;;;;;5020512;28;20237;-60
2023/09/17 01:14:29;;;;;;;9.05;8.15;;;19.90;99.90;;;;;;5026320;28;20262;-59
2023/09/17 01:16:57;;;;;;;9.98;9.07;;;19.90;99.90;;;;;;5026027;28;20238;-59
2023/09/17 01:19:28;;;;;;;9.00;8.10;;;19.90;99.90;;;;;;5032808;28;20213;-58
2023/09/17 01:22:01;;;;;;;8.73;7.82;;;19.90;99.90;;;;;;5019362;28;20888;-59
2023/09/17 01:24:33;;;;;;;8.93;8.15;;;19.80;99.90;;;;;;5031938;28;20197;-59
2023/09/17 01:27:03;;;;;;;11.30;8.52;;;19.80;99.90;;;;;;5032619;28;20229;-60
2023/09/17 01:29:37;;;;;;;8.57;7.80;;;19.80;99.90;;;;;;5033254;28;20206;-59
2023/09/17 01:32:05;;;;;;;8.40;7.70;;;19.80;99.90;;;;;;5031369;28;20290;-60
2023/09/17 01:34:34;;;;;;;9.75;8.85;;;19.80;99.90;;;;;;5025135;28;20878;-59
2023/09/17 01:37:03;;;;;;;9.48;8.18;;;19.80;99.90;;;;;;5026520;28;20581;-59
2023/09/17 01:39:33;;;;;;;8.82;8.00;;;19.80;99.90;;;;;;5027862;28;20202;-60
2023/09/17 01:42:03;;;;;;;9.20;8.43;;;19.80;99.90;;;;;;5026786;28;20241;-59
2023/09/17 01:44:31;;;;;;;10.77;8.95;;;19.80;99.90;;;;;;5032702;28;20234;-60
2023/09/17 01:47:00;;;;;;;11.75;9.20;;;19.80;99.90;;;;;;5032418;28;20222;-59
2023/09/17 01:49:28;;;;;;;8.90;8.10;;;19.80;99.90;;;;;;5032106;28;20300;-59
2023/09/17 01:51:56;;;;;;;9.38;8.02;;;19.80;99.90;;;;;;5032697;28;20214;-60
2023/09/17 01:54:25;;;;;;;9.77;8.25;;;19.80;99.90;;;;;;5034062;28;20381;-60
2023/09/17 01:56:53;;;;;;;10.63;8.15;;;19.70;99.90;;;;;;5028262;28;20719;-60
2023/09/17 01:59:22;;;;;;;9.25;8.38;;;19.70;99.90;;;;;;5030747;28;20735;-60
2023/09/17 02:01:50;;;;;;;9.05;8.25;;;19.70;99.90;;;;;;5031826;28;20242;-59
2023/09/17 02:04:18;;;;;;;10.38;9.10;;;19.70;99.90;;;;;;5027992;28;20210;-58
2023/09/17 02:06:47;;;;;;;8.70;7.80;;;19.60;99.90;;;;;;5031252;28;20230;-59
2023/09/17 02:09:15;;;;;;;10.38;8.50;;;19.60;99.90;;;;;;5034339;28;20286;-59
2023/09/17 02:11:43;;;;;;;10.40;7.85;;;19.60;99.90;;;;;;5032539;28;20221;-58
2023/09/17 02:14:11;;;;;;;10.55;8.35;;;19.60;99.90;;;;;;5032390;28;20312;-59
2023/09/17 02:16:40;;;;;;;9.25;8.35;;;19.50;99.90;;;;;;5032093;28;20244;-59
2023/09/17 02:19:09;;;;;;;12.18;8.02;;;19.50;99.90;;;;;;5034033;28;20213;-59
2023/09/17 02:21:37;;;;;;;9.20;7.95;;;19.50;99.90;;;;;;5032029;28;20272;-59
2023/09/17 02:24:05;;;;;;;10.32;8.48;;;19.50;99.90;;;;;;5033504;28;20284;-59
2023/09/17 02:26:33;;;;;;;9.30;8.15;;;19.50;99.90;;;;;;5030243;28;20222;-58
2023/09/17 02:29:01;;;;;;;11.00;8.02;;;19.40;99.90;;;;;;5031485;28;20261;-59
2023/09/17 02:31:29;;;;;;;8.60;7.78;;;19.40;99.90;;;;;;5032160;28;20260;-59
2023/09/17 02:33:58;;;;;;;9.27;8.25;;;19.40;99.90;;;;;;5030724;28;20242;-59
2023/09/17 02:36:26;;;;;;;9.40;7.97;;;19.40;99.90;;;;;;5031960;28;20359;-58
2023/09/17 02:38:54;;;;;;;10.50;8.02;;;19.40;99.90;;;;;;5031347;28;20655;-59
2023/09/17 02:41:22;;;;;;;8.93;8.02;;;19.40;99.90;;;;;;5033625;28;20256;-59
2023/09/17 02:43:50;;;;;;;9.00;8.10;;;19.40;99.90;;;;;;5031806;28;20233;-59
2023/09/17 02:46:19;;;;;;;8.27;7.57;;;19.40;99.90;;;;;;5031112;28;20745;-59
2023/09/17 02:48:47;;;;;;;8.63;7.72;;;19.40;99.90;;;;;;5031039;28;20202;-59
2023/09/17 02:51:17;;;;;;;8.68;7.85;;;19.40;99.90;;;;;;5031702;28;20237;-59
2023/09/17 02:53:46;;;;;;;10.23;8.40;;;19.40;99.90;;;;;;5031736;28;20317;-58
2023/09/17 02:56:14;;;;;;;10.35;8.25;;;19.40;99.90;;;;;;5031624;28;20230;-59
2023/09/17 02:58:42;;;;;;;8.60;7.82;;;19.40;99.90;;;;;;5031318;28;20245;-59
2023/09/17 03:01:15;;;;;;;8.75;8.05;;;19.40;99.90;;;;;;5031047;28;20201;-59
2023/09/17 03:03:43;;;;;;;8.70;7.90;;;19.40;99.90;;;;;;5030528;28;20289;-59
2023/09/17 03:06:11;;;;;;;10.10;8.20;;;19.40;99.90;;;;;;5031092;28;20222;-59
2023/09/17 03:08:42;;;;;;;11.70;8.85;;;19.40;99.90;;;;;;5030652;28;20723;-59
2023/09/17 03:11:13;;;;;;;9.00;8.13;;;19.40;99.90;;;;;;5032368;28;20264;-59
2023/09/17 03:13:42;;;;;;;9.25;8.07;;;19.40;99.90;;;;;;5030978;28;20284;-59
2023/09/17 03:16:12;;;;;;;11.98;8.07;;;19.40;99.90;;;;;;5030893;28;20607;-59
2023/09/17 03:18:40;;;;;;;9.00;8.20;;;19.30;99.90;;;;;;5030443;28;20237;-59
2023/09/17 03:21:09;;;;;;;9.15;8.25;;;19.30;99.90;;;;;;5030830;28;20352;-59
2023/09/17 03:23:37;;;;;;;8.50;7.68;;;19.30;99.90;;;;;;5026462;28;20297;-59
2023/09/17 03:26:06;;;;;;;9.23;8.30;;;19.30;99.90;;;;;;5030297;28;20253;-59
2023/09/17 03:28:34;;;;;;;9.20;7.75;;;19.30;99.90;;;;;;5031978;28;20248;-59
2023/09/17 03:31:03;;;;;;;8.52;7.72;;;19.20;99.90;;;;;;5030904;28;20242;-59
2023/09/17 03:33:31;;;;;;;8.55;7.78;;;19.20;99.90;;;;;;5030873;28;20631;-59
2023/09/17 03:35:59;;;;;;;8.98;8.18;;;19.20;99.90;;;;;;5029228;28;20225;-58
2023/09/17 03:38:27;;;;;;;8.45;7.68;;;19.20;99.90;;;;;;5030822;28;20900;-59
2023/09/17 03:40:59;;;;;;;8.95;8.05;;;19.20;99.90;;;;;;5030616;28;20256;-59
2023/09/17 03:43:29;;;;;;;8.55;7.57;;;19.20;99.90;;;;;;5031032;28;20225;-59
2023/09/17 03:45:57;;;;;;;10.45;8.77;;;19.20;99.90;;;;;;5030678;28;20280;-58
2023/09/17 03:48:25;;;;;;;9.20;8.20;;;19.20;99.90;;;;;;5032699;28;20202;-59
2023/09/17 03:50:53;;;;;;;8.85;8.15;;;19.20;99.90;;;;;;5029565;28;20337;-59
2023/09/17 03:53:21;;;;;;;9.15;8.25;;;19.20;99.90;;;;;;5030781;28;20297;-59
2023/09/17 03:55:49;;;;;;;8.07;7.38;;;19.20;99.90;;;;;;5031435;28;20308;-59
2023/09/17 03:58:17;;;;;;;8.90;8.00;;;19.20;99.90;;;;;;5029995;28;20212;-58
2023/09/17 04:00:46;;;;;;;8.82;8.00;;;19.10;99.90;;;;;;5030501;28;20202;-59
2023/09/17 04:03:14;;;;;;;10.98;8.07;;;19.10;99.90;;;;;;5031608;28;20232;-59
2023/09/17 04:05:42;;;;;;;11.10;8.50;;;19.10;99.90;;;;;;5029740;28;20198;-59
2023/09/17 04:08:10;;;;;;;8.77;7.97;;;19.10;99.90;;;;;;5029961;28;20229;-59
2023/09/17 04:10:39;;;;;;;9.15;8.00;;;19.10;99.90;;;;;;5030810;28;20210;-59
2023/09/17 04:13:09;;;;;;;10.52;8.13;;;19.10;99.90;;;;;;5030753;28;20229;-59
2023/09/17 04:15:37;;;;;;;9.25;8.35;;;19.10;99.90;;;;;;5030235;28;20782;-59
2023/09/17 04:18:06;;;;;;;14.77;8.35;;;19.10;99.90;;;;;;5033129;28;20675;-60
2023/09/17 04:20:35;;;;;;;8.68;7.90;;;19.10;99.90;;;;;;5029125;28;20202;-59
2023/09/17 04:23:04;;;;;;;8.88;7.78;;;19.10;99.90;;;;;;5025513;28;20210;-60
2023/09/17 04:25:32;;;;;;;9.15;8.15;;;19.10;99.90;;;;;;5035891;28;20245;-59
2023/09/17 04:28:02;;;;;;;8.85;7.88;;;19.00;99.90;;;;;;5027985;28;20205;-59
2023/09/17 04:30:29;;;;;;;9.75;8.05;;;19.00;99.90;;;;;;5034314;28;20210;-59
2023/09/17 04:32:57;;;;;;;11.25;7.57;;;19.00;99.90;;;;;;5035755;28;20201;-59
2023/09/17 04:35:27;;;;;;;14.30;8.30;;;19.00;99.90;;;;;;5034559;28;20257;-59
2023/09/17 04:37:55;;;;;;;9.98;7.95;;;18.90;99.90;;;;;;5033947;28;20684;-59
2023/09/17 04:40:25;;;;;;;9.50;8.63;;;18.90;99.90;;;;;;5036551;28;20206;-59
2023/09/17 04:42:53;;;;;;;8.93;8.05;;;18.90;99.90;;;;;;5033858;28;20210;-60
2023/09/17 04:45:32;;;;;;;9.55;7.70;;;18.90;99.90;;;;;;5034116;28;20638;-60
2023/09/17 04:48:00;;;;;;;11.48;8.07;;;18.90;99.90;;;;;;5034551;28;20341;-59
2023/09/17 04:50:29;;;;;;;10.57;8.45;;;18.90;99.90;;;;;;5034120;28;20336;-60
2023/09/17 04:52:57;;;;;;;12.20;8.45;;;18.90;99.90;;;;;;5033842;28;20293;-59
2023/09/17 04:55:26;;;;;;;11.27;8.40;;;18.80;99.90;;;;;;5035746;28;20217;-59
2023/09/17 04:57:54;;;;;;;10.50;7.95;;;18.80;99.90;;;;;;5034315;28;20293;-59
2023/09/17 05:00:22;;;;;;;10.82;8.30;;;18.80;99.90;;;;;;5033902;28;20202;-59
2023/09/17 05:02:50;;;;;;;8.63;7.75;;;18.80;99.90;;;;;;5032529;28;20210;-59
2023/09/17 05:05:19;;;;;;;8.43;7.75;;;18.80;99.90;;;;;;5035957;28;20202;-60
2023/09/17 05:07:53;;;;;;;8.40;7.80;;;18.80;99.90;;;;;;5032952;28;20299;-60
2023/09/17 05:10:21;;;;;;;11.20;8.52;;;18.70;99.90;;;;;;5033346;28;20222;-59
2023/09/17 05:12:49;;;;;;;8.90;8.02;;;18.70;99.90;;;;;;5032906;28;20657;-59
2023/09/17 05:15:17;;;;;;;8.45;7.38;;;18.70;99.90;;;;;;5034166;28;20225;-60
2023/09/17 05:17:45;;;;;;;9.27;7.63;;;18.70;99.90;;;;;;5031019;28;20698;-59
2023/09/17 05:20:13;;;;;;;9.95;7.90;;;18.70;99.90;;;;;;5034330;28;20696;-59
2023/09/17 05:22:41;;;;;;;8.07;7.35;;;18.70;99.90;;;;;;5033493;28;20202;-59
2023/09/17 05:25:10;;;;;;;10.32;7.57;;;18.70;99.90;;;;;;5032904;28;20273;-59
2023/09/17 05:27:39;;;;;;;9.77;7.60;;;18.70;99.90;;;;;;5035021;28;20228;-59
2023/09/17 05:30:08;;;;;;;8.10;7.45;;;18.70;99.90;;;;;;5033542;28;20260;-59
2023/09/17 05:32:36;;;;;;;8.70;7.93;;;18.70;99.90;;;;;;5032568;28;20707;-59
2023/09/17 05:35:05;;;;;;;9.00;7.68;;;18.70;99.90;;;;;;5035508;28;20258;-59
2023/09/17 05:37:33;;;;;;;9.52;7.53;;;18.70;99.90;;;;;;5034423;28;20284;-59
2023/09/17 05:40:01;;;;;;;9.60;8.40;;;18.70;99.90;;;;;;5032255;28;22167;-59
2023/09/17 05:42:31;;;;;;;8.40;7.38;;;18.70;99.90;;;;;;5028430;28;20260;-59
2023/09/17 05:44:58;;;;;;;9.93;7.45;;;18.70;99.90;;;;;;5031413;28;20210;-59
2023/09/17 05:47:26;;;;;;;9.05;7.60;;;18.70;99.90;;;;;;5031913;28;20254;-59
2023/09/17 05:49:57;;;;;;;8.27;7.57;;;18.80;99.90;;;;;;5035236;28;20242;-59
2023/09/17 05:52:25;;;;;;;9.35;8.10;;;18.80;99.90;;;;;;5033313;28;20206;-59
2023/09/17 05:54:53;;;;;;;9.93;7.85;;;18.80;99.90;;;;;;5032181;28;20625;-59
2023/09/17 05:57:21;;;;;;;8.50;7.80;;;18.80;99.90;;;;;;5033678;28;20267;-59
2023/09/17 05:59:51;;;;;;;8.30;7.60;;;18.80;99.90;;;;;;5032367;28;20237;-61
2023/09/17 06:02:18;;;;;;;8.98;7.22;;;18.80;99.90;;;;;;5033057;28;20202;-62
2023/09/17 06:04:47;;;;;;;8.75;7.45;;;18.80;99.90;;;;;;5032677;28;20763;-62
2023/09/17 06:07:15;;;;;;;8.38;7.68;;;18.80;99.90;;;;;;5032924;28;20218;-62
2023/09/17 06:09:43;;;;;;;9.15;7.88;;;18.80;99.90;;;;;;5032769;28;20198;-62
2023/09/17 06:12:12;;;;;;;12.88;9.52;;;18.80;99.90;;;;;;5034181;28;20286;-62
2023/09/17 06:14:40;;;;;;;12.93;8.35;;;18.80;99.90;;;;;;5032530;28;20250;-62
2023/09/17 06:17:09;;;;;;;7.75;7.15;;;18.80;99.90;;;;;;5024455;28;20304;-62
2023/09/17 06:19:37;;;;;;;11.60;8.20;;;18.80;99.90;;;;;;5032432;28;20210;-61
2023/09/17 06:22:05;;;;;;;9.38;8.30;;;18.80;99.90;;;;;;5032669;28;20754;-62
2023/09/17 06:24:33;;;;;;;9.05;8.15;;;18.80;99.90;;;;;;5032374;28;20226;-61
2023/09/17 06:27:01;;;;;;;9.95;8.88;;;18.90;99.90;;;;;;5030161;28;20305;-61
2023/09/17 06:29:29;;;;;;;10.20;9.20;;;18.90;99.90;;;;;;5027460;28;20206;-62
2023/09/17 06:31:57;;;;;;;10.43;9.30;;;18.80;99.90;;;;;;5033129;28;20296;-62
2023/09/17 06:34:26;;;;;;;10.38;9.02;;;19.00;99.90;;;;;;5031806;28;20198;-62
2023/09/17 06:36:54;;;;;;;11.70;9.23;;;19.00;99.90;;;;;;5031563;28;20769;-62
2023/09/17 06:39:22;;;;;;;14.23;9.90;;;19.10;99.90;;;;;;5032408;28;20230;-62
2023/09/17 06:41:50;;;;;;;18.13;9.63;;;19.10;99.90;;;;;;5034968;28;20244;-62
2023/09/17 06:44:19;;;;;;;22.42;12.77;;;19.20;99.90;;;;;;5032115;28;20233;-62
2023/09/17 06:46:47;;;;;;;10.10;9.10;;;19.30;99.90;;;;;;5035540;28;20217;-62
2023/09/17 06:49:14;;;;;;;17.00;12.35;;;19.30;99.90;;;;;;5025130;28;20210;-62
2023/09/17 06:51:44;;;;;;;11.55;10.00;;;19.40;99.90;;;;;;5031875;28;20234;-62
2023/09/17 06:54:11;;;;;;;16.40;11.93;;;19.50;99.90;;;;;;5032102;28;20723;-62
2023/09/17 06:56:39;;;;;;;13.77;12.30;;;19.60;99.90;;;;;;5035771;28;20324;-62
2023/09/17 06:59:07;;;;;;;15.65;11.32;;;19.60;99.90;;;;;;5032045;28;20313;-62
2023/09/17 07:01:36;;;;;;;20.58;17.10;;;19.70;99.90;;;;;;5031547;28;20238;-62
2023/09/17 07:04:04;;;;;;;19.70;15.40;;;19.80;99.90;;;;;;5032165;28;20213;-61
2023/09/17 07:06:32;;;;;;;18.15;14.43;;;19.90;99.90;;;;;;5032455;28;20229;-62
2023/09/17 07:09:01;;;;;;;18.75;14.30;;;20.00;99.90;;;;;;5031528;28;20680;-62
2023/09/17 07:11:29;;;;;;;17.63;15.75;;;20.00;99.90;;;;;;5032028;28;20206;-62
2023/09/17 07:13:57;;;;;;;18.48;14.68;;;20.10;99.90;;;;;;5031072;28;20697;-61
2023/09/17 07:16:27;;;;;;;22.25;16.42;;;20.30;99.90;;;;;;5031945;28;20283;-62
2023/09/17 07:18:55;;;;;;;17.65;15.90;;;20.30;99.90;;;;;;5030528;28;20296;-62
2023/09/17 07:21:23;;;;;;;19.80;17.15;;;20.40;99.90;;;;;;5035363;28;20296;-62
2023/09/17 07:23:52;;;;;;;22.48;16.88;;;20.50;99.90;;;;;;5031702;28;20650;-62
2023/09/17 07:26:21;;;;;;;18.08;16.15;;;20.60;99.90;;;;;;5031312;28;20225;-62
2023/09/17 07:28:49;;;;;;;18.83;16.55;;;20.60;99.90;;;;;;5027957;28;20230;-62
2023/09/17 07:31:17;;;;;;;20.15;15.80;;;20.60;99.90;;;;;;5031895;28;20261;-62
2023/09/17 07:33:45;;;;;;;24.52;16.15;;;20.60;99.90;;;;;;5031617;28;20550;-62
2023/09/17 07:36:13;;;;;;;19.27;16.02;;;20.60;99.90;;;;;;5027438;28;20225;-62
2023/09/17 07:38:41;;;;;;;18.33;16.38;;;20.70;99.90;;;;;;5030439;28;20202;-61
2023/09/17 07:41:09;;;;;;;18.60;15.68;;;20.80;99.90;;;;;;5030574;28;20202;-62
2023/09/17 07:43:38;;;;;;;19.88;15.25;;;20.90;99.90;;;;;;5031832;28;20212;-52
2023/09/17 07:46:06;;;;;;;18.42;13.32;;;21.00;99.90;;;;;;5033316;28;20348;-54
2023/09/17 07:48:34;;;;;;;19.40;14.50;;;21.10;99.90;;;;;;5027236;28;20206;-52
2023/09/17 07:51:02;;;;;;;16.95;14.65;;;21.20;99.90;;;;;;5030227;28;20231;-53
2023/09/17 07:53:30;;;;;;;15.65;13.30;;;21.30;99.90;;;;;;5037145;28;20289;-56
2023/09/17 07:55:58;;;;;;;16.27;13.23;;;21.50;99.90;;;;;;5031493;28;20234;-54
2023/09/17 07:58:26;;;;;;;13.65;11.82;;;21.60;99.90;;;;;;5034989;28;20206;-56
2023/09/17 08:00:55;;;;;;;18.45;11.68;;;21.80;99.90;;;;;;5032755;28;20259;-54
2023/09/17 08:03:23;;;;;;;15.27;12.32;;;21.80;99.90;;;;;;5034745;28;20643;-55
2023/09/17 08:05:52;;;;;;;13.05;11.65;;;21.90;99.90;;;;;;5034089;28;20710;-55
2023/09/17 08:08:20;;;;;;;15.68;11.77;;;22.00;99.90;;;;;;5035671;28;20654;-56
2023/09/17 08:10:48;;;;;;;15.05;11.95;;;22.10;99.90;;;;;;5027599;28;20210;-53
2023/09/17 08:13:16;;;;;;;16.13;11.57;;;22.20;99.90;;;;;;5033120;28;20209;-55
2023/09/17 08:15:44;;;;;;;16.05;10.77;;;22.30;99.90;;;;;;5031543;28;20264;-54
2023/09/17 08:18:13;;;;;;;13.90;11.10;;;22.50;99.90;;;;;;5034350;28;20695;-56
2023/09/17 08:20:41;;;;;;;12.32;10.63;;;22.60;99.90;;;;;;5034668;28;20749;-55
2023/09/17 08:23:09;;;;;;;11.43;9.93;;;22.70;99.90;;;;;;5040742;28;20210;-53
2023/09/17 08:25:37;;;;;;;10.52;8.95;;;22.70;99.90;;;;;;5032473;28;20755;-53
2023/09/17 08:28:07;;;;;;;11.00;9.73;;;22.80;99.90;;;;;;5037815;28;20206;-51
2023/09/17 08:30:39;;;;;;;8.82;8.00;;;22.90;99.90;;;;;;5033450;28;20202;-54
2023/09/17 08:33:09;;;;;;;8.98;8.18;;;23.00;99.90;;;;;;5036224;28;20268;-52
2023/09/17 08:35:39;;;;;;;9.68;8.10;;;23.10;99.90;;;;;;5033609;28;20687;-54
2023/09/17 08:38:08;;;;;;;10.18;8.13;;;23.20;99.90;;;;;;5029161;28;20222;-56
2023/09/17 08:40:36;;;;;;;9.82;7.65;;;23.30;99.90;;;;;;5032293;28;20210;-56
2023/09/17 08:43:05;;;;;;;8.70;7.05;;;23.40;99.90;;;;;;5034748;28;20631;-54
2023/09/17 08:45:33;;;;;;;8.77;7.88;;;23.50;99.90;;;;;;5035522;28;20248;-50
2023/09/17 08:48:01;;;;;;;8.80;7.47;;;23.60;99.90;;;;;;5033908;28;20293;-58
2023/09/17 08:50:29;;;;;;;8.75;6.70;;;23.70;99.90;;;;;;5031874;28;20292;-59
2023/09/17 08:53:00;;;;;;;7.13;6.47;;;23.70;99.90;;;;;;5031335;28;20626;-58
2023/09/17 08:55:29;;;;;;;9.02;7.15;;;23.80;99.90;;;;;;5033335;28;20612;-58
2023/09/17 08:57:58;;;;;;;6.72;6.13;;;23.90;99.90;;;;;;5033868;28;20597;-59
2023/09/17 09:00:26;;;;;;;7.28;5.30;;;24.00;99.90;;;;;;5033813;28;20283;-59
2023/09/17 09:02:56;;;;;;;5.57;4.97;;;24.10;99.90;;;;;;5033669;28;20229;-59
2023/09/17 09:05:25;;;;;;;4.82;4.32;;;24.30;99.90;;;;;;5033729;28;20659;-58
2023/09/17 09:07:55;;;;;;;6.68;5.15;;;24.50;99.90;;;;;;5032965;28;20583;-58
2023/09/17 09:10:25;;;;;;;5.68;5.18;;;24.60;99.90;;;;;;5033739;28;20252;-59
2023/09/17 09:12:53;;;;;;;10.43;5.47;;;24.80;99.90;;;;;;5033844;28;20212;-58
2023/09/17 09:15:21;;;;;;;9.75;5.28;;;25.00;99.90;;;;;;5033716;28;20644;-58
2023/09/17 09:17:48;;;;;;;5.75;4.80;;;25.10;99.90;;;;;;5033323;28;20229;-59
2023/09/17 09:20:18;;;;;;;4.80;4.40;;;25.30;99.90;;;;;;5033479;28;20863;-59
2023/09/17 09:22:46;;;;;;;8.82;5.03;;;25.50;99.90;;;;;;5033520;28;20260;-59
2023/09/17 09:25:14;;;;;;;5.50;4.72;;;25.50;99.90;;;;;;5033716;28;20209;-59
2023/09/17 09:27:43;;;;;;;6.13;5.35;;;25.50;99.90;;;;;;5033256;28;20305;-59
2023/09/17 09:30:14;;;;;;;7.03;5.65;;;25.50;99.90;;;;;;5033880;28;20580;-59
2023/09/17 09:32:42;;;;;;;10.52;6.28;;;25.60;99.90;;;;;;5032901;28;20214;-58
2023/09/17 09:35:10;;;;;;;7.28;6.22;;;25.70;99.90;;;;;;5033187;28;20241;-58
2023/09/17 09:37:38;;;;;;;8.88;6.63;;;25.80;99.90;;;;;;5033210;28;20317;-58
2023/09/17 09:40:07;;;;;;;6.35;5.60;;;26.00;99.90;;;;;;5031916;28;20213;-58
2023/09/17 09:42:35;;;;;;;8.90;6.20;;;26.40;99.90;;;;;;5031757;28;20288;-59
2023/09/17 09:45:05;;;;;;;8.20;5.40;;;26.80;99.90;;;;;;5033471;28;20244;-59
2023/09/17 09:47:33;;;;;;;6.85;5.60;;;27.10;99.90;;;;;;5036001;28;20245;-59
2023/09/17 09:50:01;;;;;;;6.70;5.22;;;27.40;99.90;;;;;;5035558;28;20210;-59
2023/09/17 09:52:29;;;;;;;5.80;5.00;;;27.60;99.90;;;;;;5030818;28;20206;-59
2023/09/17 09:54:57;;;;;;;6.82;4.95;;;27.60;99.90;;;;;;5032537;28;20206;-59
2023/09/17 09:57:25;;;;;;;7.45;5.18;;;27.70;99.90;;;;;;5034560;28;20309;-59
2023/09/17 09:59:53;;;;;;;5.25;4.57;;;28.00;99.90;;;;;;5032116;28;20304;-59
2023/09/17 10:02:24;;;;;;;6.68;5.22;;;28.30;99.90;;;;;;5035051;28;20741;-59
2023/09/17 10:04:52;;;;;;;7.80;4.80;;;28.50;99.90;;;;;;5033965;28;20206;-59
2023/09/17 10:07:21;;;;;;;7.40;4.10;;;28.70;99.90;;;;;;5032932;28;20225;-59
2023/09/17 10:09:49;;;;;;;6.80;4.00;;;28.80;99.90;;;;;;5037090;28;20260;-59
2023/09/17 10:12:17;;;;;;;4.65;4.22;;;29.00;99.90;;;;;;5031648;28;20287;-59
2023/09/17 10:14:44;;;;;;;4.60;4.00;;;29.20;99.90;;;;;;5036929;28;20739;-59
2023/09/17 10:17:14;;;;;;;4.88;4.03;;;29.50;99.90;;;;;;5050268;23;20229;-71
2023/09/17 10:19:43;;;;;;;5.53;4.10;;;29.80;99.90;;;;;;5025871;28;20206;-72
2023/09/17 10:22:12;;;;;;;5.75;4.70;;;30.00;99.90;;;;;;5041182;28;20236;-72
2023/09/17 10:24:40;;;;;;;7.82;4.38;;;30.10;99.90;;;;;;5031226;28;20629;-72
2023/09/17 10:27:08;;;;;;;5.03;4.35;;;30.20;99.90;;;;;;5021220;28;20207;-72
2023/09/17 10:29:38;;;;;;;6.07;4.20;;;30.40;99.90;;;;;;5026263;28;20221;-72
2023/09/17 10:32:06;;;;;;;6.25;4.85;;;30.60;99.90;;;;;;5027171;28;20226;-73
2023/09/17 10:34:35;;;;;;;6.68;5.07;;;30.70;99.90;;;;;;5027634;28;20224;-72
2023/09/17 10:37:05;;;;;;;8.18;4.35;;;30.70;99.90;;;;;;5027359;28;20297;-72
2023/09/17 10:39:33;;;;;;;5.47;4.97;;;30.90;99.90;;;;;;5032518;28;21039;-73
2023/09/17 10:42:02;;;;;;;7.25;5.07;;;31.00;99.90;;;;;;5027475;28;20316;-72
2023/09/17 10:44:30;;;;;;;4.95;4.55;;;31.20;99.90;;;;;;5030738;28;20576;-72
2023/09/17 10:47:00;;;;;;;6.28;4.38;;;31.10;99.90;;;;;;5028315;28;20214;-72
2023/09/17 10:49:30;;;;;;;5.40;4.00;;;31.10;99.90;;;;;;5028845;28;20202;-72
2023/09/17 10:51:58;;;;;;;6.40;4.32;;;31.20;99.90;;;;;;5027112;28;20230;-72
2023/09/17 10:54:27;;;;;;;5.88;4.30;;;31.50;99.90;;;;;;5028542;28;20302;-72
2023/09/17 10:56:55;;;;;;;10.55;4.10;;;31.50;99.90;;;;;;5028461;28;20281;-72
2023/09/17 10:59:23;;;;;;;4.95;4.55;;;31.60;99.90;;;;;;5020528;28;20766;-73
2023/09/17 11:01:51;;;;;;;5.57;3.90;;;31.70;99.90;;;;;;5022750;28;20731;-72
2023/09/17 11:04:20;;;;;;;4.97;4.32;;;31.70;99.90;;;;;;5026652;28;20206;-73
2023/09/17 11:06:48;;;;;;;5.25;4.10;;;32.00;99.90;;;;;;5026882;28;20233;-72
2023/09/17 11:09:16;;;;;;;4.95;3.72;;;32.10;99.90;;;;;;5027015;28;20202;-72
2023/09/17 11:11:46;;;;;;;5.68;3.83;;;32.20;99.90;;;;;;5031624;28;20225;-72
2023/09/17 11:14:14;;;;;;;7.55;3.60;;;32.30;99.90;;;;;;5018659;28;20233;-72
2023/09/17 11:16:42;;;;;;;3.85;3.45;;;32.30;99.90;;;;;;5026174;28;20626;-72
2023/09/17 11:19:11;;;;;;;7.05;4.35;;;32.40;99.90;;;;;;5030252;28;20687;-73
2023/09/17 11:21:40;;;;;;;5.32;3.85;;;32.30;99.90;;;;;;5021012;28;20239;-73
2023/09/17 11:24:10;;;;;;;4.60;3.80;;;32.10;99.90;;;;;;5016563;28;20210;-72
2023/09/17 11:26:39;;;;;;;4.63;3.40;;;31.90;99.90;;;;;;5024084;28;20209;-72
2023/09/17 11:29:09;;;;;;;4.20;3.80;;;32.00;99.90;;;;;;5028999;28;20202;-72
2023/09/17 11:31:37;;;;;;;7.57;4.18;;;32.00;99.90;;;;;;5020775;28;20234;-73
2023/09/17 11:34:08;;;;;;;8.38;3.80;;;32.00;99.90;;;;;;5023957;28;20213;-72
2023/09/17 11:36:36;;;;;;;9.85;4.15;;;31.80;99.90;;;;;;5029318;28;20292;-73
2023/09/17 11:39:05;;;;;;;6.38;3.65;;;31.60;99.90;;;;;;5015068;28;20257;-72
2023/09/17 11:41:35;;;;;;;5.30;4.00;;;31.50;99.90;;;;;;5030976;28;20222;-72
2023/09/17 11:44:04;;;;;;;3.90;3.60;;;31.40;99.90;;;;;;5017895;28;20210;-72
2023/09/17 11:46:34;;;;;;;5.07;3.75;;;31.50;99.90;;;;;;5025890;28;20212;-72
2023/09/17 11:49:02;;;;;;;8.95;4.07;;;31.40;99.90;;;;;;5027956;28;20247;-72
2023/09/17 11:51:31;;;;;;;7.20;3.88;;;31.40;99.90;;;;;;5021659;28;20222;-73
2023/09/17 11:54:01;;;;;;;6.65;4.40;;;31.40;99.90;;;;;;5022669;28;20213;-72
2023/09/17 11:56:30;;;;;;;5.57;4.13;;;31.40;99.90;;;;;;5027090;28;20206;-72
2023/09/17 11:59:02;;;;;;;5.00;3.45;;;31.50;99.90;;;;;;5014389;28;20226;-72
2023/09/17 12:01:34;;;;;;;5.93;3.65;;;31.50;99.90;;;;;;5023360;28;20228;-72
2023/09/17 12:04:06;;;;;;;7.72;3.83;;;31.50;99.90;;;;;;5017450;28;20695;-73
2023/09/17 12:06:36;;;;;;;8.18;3.92;;;31.50;99.90;;;;;;5029629;28;20220;-73
2023/09/17 12:09:15;;;;;;;5.10;3.78;;;31.50;99.90;;;;;;5025109;28;20316;-73
2023/09/17 12:11:45;;;;;;;4.95;3.88;;;31.40;99.90;;;;;;5019505;28;20733;-73
2023/09/17 12:14:13;;;;;;;4.85;4.28;;;31.20;99.90;;;;;;5017574;28;20246;-72
2023/09/17 12:16:42;;;;;;;7.15;3.88;;;31.20;99.90;;;;;;5022361;28;20209;-73
2023/09/17 12:19:10;;;;;;;5.65;3.65;;;31.20;99.90;;;;;;5021076;28;20682;-73
2023/09/17 12:21:46;;;;;;;7.05;3.53;;;31.20;99.90;;;;;;5025473;28;20233;-72
2023/09/17 12:24:23;;;;;;;6.03;3.00;;;31.30;99.90;;;;;;5031167;28;20206;-73
2023/09/17 12:27:09;;;;;;;6.82;3.90;;;31.10;99.90;;;;;;5023753;28;20210;-72
2023/09/17 12:29:38;;;;;;;6.57;3.38;;;31.10;99.90;;;;;;5020047;28;20198;-74
2023/09/17 12:32:10;;;;;;;5.60;3.38;;;30.90;99.90;;;;;;5016575;28;20238;-73
2023/09/17 12:34:38;;;;;;;8.63;3.72;;;31.00;99.90;;;;;;5035640;28;20247;-73
2023/09/17 12:37:06;;;;;;;7.93;3.20;;;31.00;99.90;;;;;;5021677;28;20214;-73
2023/09/17 12:39:34;;;;;;;5.70;3.22;;;31.00;99.90;;;;;;5022616;28;20265;-72
2023/09/17 12:42:03;;;;;;;8.52;3.30;;;30.90;99.90;;;;;;5029294;28;20261;-72
2023/09/17 12:44:31;;;;;;;6.72;3.20;;;30.80;99.90;;;;;;5037873;23;20260;-53
2023/09/17 12:46:59;;;;;;;6.00;3.53;;;30.90;99.90;;;;;;5031416;28;20659;-53
2023/09/17 12:49:28;;;;;;;5.80;3.00;;;31.10;99.90;;;;;;5025451;28;20201;-53